createdAt,value
2017-10-27T00:00:14.391Z,99.99
2017-10-27T00:01:14.420Z,99.99
2017-10-27T00:02:14.343Z,99.99
2017-10-27T00:03:14.421Z,99.99
2017-10-27T00:04:14.462Z,99.99
2017-10-27T00:05:14.315Z,99.99
2017-10-27T00:06:14.000Z,99.99
2017-10-27T00:07:14.263Z,99.99
2017-10-27T00:08:14.281Z,99.99
2017-10-27T00:09:14.321Z,99.99
2017-10-27T00:10:14.255Z,99.99
2017-10-27T00:11:14.221Z,99.99
2017-10-27T00:12:14.150Z,99.99
2017-10-27T00:13:14.195Z,99.99
2017-10-27T00:14:14.123Z,99.99
2017-10-27T00:15:14.162Z,99.99
2017-10-27T00:16:13.761Z,99.99
2017-10-27T00:17:13.748Z,99.99
2017-10-27T00:18:14.055Z,99.99
2017-10-27T00:19:14.055Z,99.99
2017-10-27T00:20:14.010Z,99.99
2017-10-27T00:21:13.992Z,99.99
2017-10-27T00:22:13.647Z,99.99
2017-10-27T00:23:13.958Z,99.99
2017-10-27T00:24:13.983Z,99.99
2017-10-27T00:25:13.919Z,99.99
2017-10-27T00:26:13.896Z,99.99
2017-10-27T00:27:13.560Z,99.99
2017-10-27T00:28:13.877Z,99.99
2017-10-27T00:29:13.842Z,99.99
2017-10-27T00:30:13.830Z,99.99
2017-10-27T00:31:13.872Z,99.99
2017-10-27T00:32:13.792Z,99.99
2017-10-27T00:33:13.825Z,99.99
2017-10-27T00:34:13.427Z,99.99
2017-10-27T00:35:13.741Z,99.99
2017-10-27T00:36:13.389Z,99.99
2017-10-27T00:37:13.692Z,99.99
2017-10-27T00:38:13.674Z,99.99
2017-10-27T00:39:13.652Z,99.99
2017-10-27T00:40:13.648Z,99.99
2017-10-27T00:41:13.623Z,99.99
2017-10-27T00:42:13.275Z,99.99
2017-10-27T00:43:13.256Z,99.99
2017-10-27T00:44:13.562Z,99.99
2017-10-27T00:45:13.542Z,99.99
2017-10-27T00:46:13.529Z,99.99
2017-10-27T00:47:13.514Z,99.99
2017-10-27T00:48:13.487Z,99.99
2017-10-27T00:49:13.156Z,99.99
2017-10-27T00:50:13.455Z,99.99
2017-10-27T00:51:13.444Z,99.99
2017-10-27T00:52:13.095Z,99.99
2017-10-27T00:53:13.402Z,99.99
2017-10-27T00:54:13.048Z,99.99
2017-10-27T00:55:13.356Z,99.99
2017-10-27T00:56:13.332Z,99.99
2017-10-27T00:57:13.320Z,99.99
2017-10-27T00:58:13.303Z,99.99
2017-10-27T00:59:13.283Z,99.99
2017-10-27T01:00:12.942Z,99.99
2017-10-27T01:01:13.242Z,99.99
2017-10-27T01:02:12.901Z,99.99
2017-10-27T01:03:12.884Z,99.99
2017-10-27T01:04:13.182Z,99.99
2017-10-27T01:05:13.172Z,99.99
2017-10-27T01:06:12.882Z,99.99
2017-10-27T01:07:13.136Z,99.99
2017-10-27T01:08:13.172Z,99.99
2017-10-27T01:09:13.093Z,99.99
2017-10-27T01:10:12.759Z,99.99
2017-10-27T01:11:13.055Z,99.99
2017-10-27T01:12:13.049Z,99.99
2017-10-27T01:13:12.693Z,99.99
2017-10-27T01:14:13.002Z,99.99
2017-10-27T01:15:12.975Z,99.99
2017-10-27T01:16:12.688Z,99.99
2017-10-27T01:17:12.626Z,99.99
2017-10-27T01:18:12.611Z,99.99
2017-10-27T01:19:12.916Z,99.99
2017-10-27T01:20:12.888Z,99.99
2017-10-27T01:21:12.869Z,99.99
2017-10-27T01:22:12.853Z,99.99
2017-10-27T01:23:12.852Z,99.99
2017-10-27T01:24:12.592Z,99.99
2017-10-27T01:25:12.794Z,99.99
2017-10-27T01:26:12.772Z,99.99
2017-10-27T01:27:12.751Z,99.99
2017-10-27T01:28:12.409Z,99.99
2017-10-27T01:29:12.398Z,99.99
2017-10-27T01:30:12.693Z,99.99
2017-10-27T01:31:12.362Z,99.99
2017-10-27T01:32:12.721Z,99.99
2017-10-27T01:33:12.638Z,99.99
2017-10-27T01:34:12.672Z,99.99
2017-10-27T01:35:12.662Z,99.99
2017-10-27T01:36:12.290Z,99.99
2017-10-27T01:37:12.240Z,99.99
2017-10-27T01:38:12.237Z,99.99
2017-10-27T01:39:12.203Z,99.99
2017-10-27T01:40:12.183Z,99.99
2017-10-27T01:41:12.488Z,99.99
2017-10-27T01:42:12.153Z,99.99
2017-10-27T01:43:12.132Z,99.99
2017-10-27T01:44:12.540Z,99.99
2017-10-27T01:45:12.093Z,99.99
2017-10-27T01:46:12.073Z,99.99
2017-10-27T01:47:12.047Z,99.99
2017-10-27T01:48:12.036Z,99.99
2017-10-27T01:49:12.357Z,99.99
2017-10-27T01:50:11.993Z,99.99
2017-10-27T01:51:11.971Z,99.99
2017-10-27T01:52:11.953Z,99.99
2017-10-27T01:53:11.941Z,99.99
2017-10-27T01:54:12.242Z,99.99
2017-10-27T01:55:11.893Z,99.99
2017-10-27T01:56:11.877Z,99.99
2017-10-27T01:57:12.191Z,99.99
2017-10-27T01:58:12.165Z,99.99
2017-10-27T01:59:11.824Z,99.99
2017-10-27T02:00:12.133Z,99.99
2017-10-27T02:01:12.240Z,99.99
2017-10-27T02:02:11.764Z,99.99
2017-10-27T02:03:12.085Z,99.99
2017-10-27T02:04:12.054Z,99.99
2017-10-27T02:05:12.050Z,99.99
2017-10-27T02:06:12.014Z,99.99
2017-10-27T02:07:12.013Z,99.99
2017-10-27T02:08:11.974Z,99.99
2017-10-27T02:09:11.973Z,99.99
2017-10-27T02:10:11.944Z,99.99
2017-10-27T02:11:11.952Z,99.99
2017-10-27T02:12:11.903Z,99.99
2017-10-27T02:13:11.880Z,99.99
2017-10-27T02:14:11.881Z,99.99
2017-10-27T02:15:11.849Z,99.99
2017-10-27T02:16:11.820Z,99.99
2017-10-27T02:17:11.805Z,99.99
2017-10-27T02:18:11.804Z,99.99
2017-10-27T02:19:11.775Z,99.99
2017-10-27T02:20:11.751Z,99.99
2017-10-27T02:21:11.722Z,99.99
2017-10-27T02:22:11.716Z,99.99
2017-10-27T02:23:11.359Z,99.99
2017-10-27T02:24:11.673Z,99.99
2017-10-27T02:25:11.325Z,99.99
2017-10-27T02:26:11.632Z,99.99
2017-10-27T02:27:11.615Z,99.99
2017-10-27T02:28:11.592Z,99.99
2017-10-27T02:29:11.572Z,99.99
2017-10-27T02:30:11.553Z,99.99
2017-10-27T02:31:11.562Z,99.99
2017-10-27T02:32:11.202Z,99.99
2017-10-27T02:33:11.503Z,99.99
2017-10-27T02:34:11.484Z,99.99
2017-10-27T02:35:11.463Z,99.99
2017-10-27T02:36:11.118Z,99.99
2017-10-27T02:37:11.423Z,99.99
2017-10-27T02:38:11.083Z,99.99
2017-10-27T02:39:11.381Z,99.99
2017-10-27T02:40:11.367Z,99.99
2017-10-27T02:41:11.024Z,99.99
2017-10-27T02:42:11.326Z,99.99
2017-10-27T02:43:10.986Z,99.99
2017-10-27T02:44:11.335Z,99.99
2017-10-27T02:45:10.952Z,99.99
2017-10-27T02:46:11.250Z,99.99
2017-10-27T02:47:10.905Z,99.99
2017-10-27T02:48:11.211Z,99.99
2017-10-27T02:49:11.191Z,99.99
2017-10-27T02:50:10.855Z,99.99
2017-10-27T02:51:11.154Z,99.99
2017-10-27T02:52:11.132Z,99.99
2017-10-27T02:53:11.122Z,99.99
2017-10-27T02:54:11.143Z,99.99
2017-10-27T02:55:11.085Z,99.99
2017-10-27T02:56:10.733Z,99.99
2017-10-27T02:57:11.045Z,99.99
2017-10-27T02:58:11.026Z,99.99
2017-10-27T02:59:10.678Z,99.99
2017-10-27T03:00:11.021Z,99.99
2017-10-27T03:01:10.653Z,99.99
2017-10-27T03:02:10.941Z,99.99
2017-10-27T03:03:11.017Z,99.99
2017-10-27T03:04:10.574Z,99.99
2017-10-27T03:05:10.563Z,99.99
2017-10-27T03:06:10.540Z,99.99
2017-10-27T03:07:10.903Z,99.99
2017-10-27T03:08:10.532Z,99.99
2017-10-27T03:09:10.859Z,99.99
2017-10-27T03:10:10.792Z,99.99
2017-10-27T03:11:10.841Z,99.99
2017-10-27T03:12:10.751Z,99.99
2017-10-27T03:13:10.409Z,99.99
2017-10-27T03:14:10.708Z,99.99
2017-10-27T03:15:10.370Z,99.99
2017-10-27T03:16:10.672Z,99.99
2017-10-27T03:17:10.331Z,99.99
2017-10-27T03:18:10.631Z,99.99
2017-10-27T03:19:10.656Z,99.99
2017-10-27T03:20:10.281Z,99.99
2017-10-27T03:21:10.591Z,99.99
2017-10-27T03:22:10.551Z,99.99
2017-10-27T03:23:10.208Z,99.99
2017-10-27T03:24:10.200Z,99.99
2017-10-27T03:25:10.182Z,99.99
2017-10-27T03:26:10.471Z,99.99
2017-10-27T03:27:10.549Z,99.99
2017-10-27T03:28:10.434Z,99.99
2017-10-27T03:29:10.100Z,99.99
2017-10-27T03:30:10.084Z,99.99
2017-10-27T03:31:10.054Z,99.99
2017-10-27T03:32:10.360Z,99.99
2017-10-27T03:33:10.397Z,99.99
2017-10-27T03:34:10.320Z,99.99
2017-10-27T03:35:09.983Z,99.99
2017-10-27T03:36:10.300Z,99.99
2017-10-27T03:37:10.280Z,99.99
2017-10-27T03:38:10.252Z,99.99
2017-10-27T03:39:09.900Z,99.99
2017-10-27T03:40:10.218Z,99.99
2017-10-27T03:41:10.191Z,99.99
2017-10-27T03:42:09.853Z,99.99
2017-10-27T03:43:10.167Z,99.99
2017-10-27T03:44:09.811Z,99.99
2017-10-27T03:45:10.116Z,99.99
2017-10-27T03:46:10.085Z,99.99
2017-10-27T03:47:10.071Z,99.99
2017-10-27T03:48:10.053Z,99.99
2017-10-27T03:49:09.708Z,99.99
2017-10-27T03:50:09.701Z,99.99
2017-10-27T03:51:09.990Z,99.99
2017-10-27T03:52:09.663Z,99.99
2017-10-27T03:53:09.963Z,99.99
2017-10-27T03:54:09.940Z,99.99
2017-10-27T03:55:09.933Z,99.99
2017-10-27T03:56:09.582Z,99.99
2017-10-27T03:57:09.560Z,99.99
2017-10-27T03:58:09.859Z,99.99
2017-10-27T03:59:09.849Z,99.99
2017-10-27T04:00:09.820Z,99.99
2017-10-27T04:01:09.482Z,99.99
2017-10-27T04:02:09.460Z,99.99
2017-10-27T04:03:09.769Z,99.99
2017-10-27T04:04:09.749Z,99.99
2017-10-27T04:05:09.731Z,99.99
2017-10-27T04:06:09.388Z,99.99
2017-10-27T04:07:09.371Z,99.99
2017-10-27T04:08:09.660Z,99.99
2017-10-27T04:09:09.322Z,99.99
2017-10-27T04:10:09.631Z,99.99
2017-10-27T04:11:09.611Z,99.99
2017-10-27T04:12:09.587Z,99.99
2017-10-27T04:13:09.572Z,99.99
2017-10-27T04:14:09.543Z,99.99
2017-10-27T04:15:09.530Z,99.99
2017-10-27T04:16:09.515Z,99.99
2017-10-27T04:17:09.512Z,99.99
2017-10-27T04:18:09.484Z,99.99
2017-10-27T04:19:09.461Z,99.99
2017-10-27T04:20:09.115Z,99.99
2017-10-27T04:21:09.411Z,99.99
2017-10-27T04:22:09.404Z,99.99
2017-10-27T04:23:09.385Z,99.99
2017-10-27T04:24:09.032Z,99.99
2017-10-27T04:25:09.010Z,99.99
2017-10-27T04:26:09.330Z,99.99
2017-10-27T04:27:09.291Z,99.99
2017-10-27T04:28:09.283Z,99.99
2017-10-27T04:29:08.931Z,99.99
2017-10-27T04:30:09.243Z,99.99
2017-10-27T04:31:08.892Z,99.99
2017-10-27T04:32:08.880Z,99.99
2017-10-27T04:33:09.190Z,99.99
2017-10-27T04:34:08.891Z,99.99
2017-10-27T04:35:09.132Z,99.99
2017-10-27T04:36:09.159Z,99.99
2017-10-27T04:37:09.101Z,99.99
2017-10-27T04:38:09.125Z,99.99
2017-10-27T04:39:08.731Z,99.99
2017-10-27T04:40:09.040Z,99.99
2017-10-27T04:41:08.696Z,99.99
2017-10-27T04:42:08.684Z,99.99
2017-10-27T04:43:08.983Z,99.99
2017-10-27T04:44:08.940Z,99.99
2017-10-27T04:45:09.079Z,99.99
2017-10-27T04:46:08.931Z,99.99
2017-10-27T04:47:08.917Z,99.99
2017-10-27T04:48:08.904Z,99.99
2017-10-27T04:49:08.542Z,99.99
2017-10-27T04:50:08.838Z,99.99
2017-10-27T04:51:08.822Z,99.99
2017-10-27T04:52:08.811Z,99.99
2017-10-27T04:53:08.457Z,99.99
2017-10-27T04:54:08.489Z,99.99
2017-10-27T04:55:08.421Z,99.99
2017-10-27T04:56:08.732Z,99.99
2017-10-27T04:57:08.751Z,99.99
2017-10-27T04:58:08.701Z,99.99
2017-10-27T04:59:08.352Z,99.99
2017-10-27T05:00:08.343Z,99.99
2017-10-27T05:01:08.641Z,99.99
2017-10-27T05:02:08.612Z,99.99
2017-10-27T05:03:08.641Z,99.99
2017-10-27T05:04:08.252Z,99.99
2017-10-27T05:05:08.559Z,99.99
2017-10-27T05:06:08.202Z,99.99
2017-10-27T05:07:08.537Z,99.99
2017-10-27T05:08:08.488Z,99.99
2017-10-27T05:09:08.479Z,99.99
2017-10-27T05:10:08.130Z,99.99
2017-10-27T05:11:08.535Z,99.99
2017-10-27T05:12:08.413Z,99.99
2017-10-27T05:13:08.071Z,99.99
2017-10-27T05:14:08.382Z,99.99
2017-10-27T05:15:08.371Z,99.99
2017-10-27T05:16:08.334Z,99.99
2017-10-27T05:17:08.439Z,99.99
2017-10-27T05:18:08.292Z,99.99
2017-10-27T05:19:08.332Z,99.99
2017-10-27T05:20:08.262Z,99.99
2017-10-27T05:21:08.232Z,99.99
2017-10-27T05:22:08.212Z,99.99
2017-10-27T05:23:08.200Z,99.99
2017-10-27T05:24:07.854Z,99.99
2017-10-27T05:25:08.153Z,99.99
2017-10-27T05:26:07.813Z,99.99
2017-10-27T05:27:08.128Z,99.99
2017-10-27T05:28:08.092Z,99.99
2017-10-27T05:29:07.751Z,99.99
2017-10-27T05:30:07.751Z,99.99
2017-10-27T05:31:07.707Z,99.99
2017-10-27T05:32:08.032Z,99.99
2017-10-27T05:33:07.677Z,99.99
2017-10-27T05:34:07.651Z,99.99
2017-10-27T05:35:07.634Z,99.99
2017-10-27T05:36:07.947Z,99.99
2017-10-27T05:37:07.605Z,99.99
2017-10-27T05:38:07.902Z,99.99
2017-10-27T05:39:07.897Z,99.99
2017-10-27T05:40:07.541Z,99.99
2017-10-27T05:41:07.513Z,99.99
2017-10-27T05:42:07.493Z,99.99
2017-10-27T05:43:07.792Z,99.99
2017-10-27T05:44:08.036Z,99.99
2017-10-27T05:45:07.763Z,99.99
2017-10-27T05:46:07.743Z,99.99
2017-10-27T05:47:07.713Z,99.99
2017-10-27T05:48:07.701Z,99.99
2017-10-27T05:49:07.352Z,99.99
2017-10-27T05:50:07.672Z,99.99
2017-10-27T05:51:07.633Z,99.99
2017-10-27T05:52:07.302Z,99.99
2017-10-27T05:53:07.609Z,99.99
2017-10-27T05:54:07.312Z,99.99
2017-10-27T05:55:07.246Z,99.99
2017-10-27T05:56:07.542Z,99.99
2017-10-27T05:57:07.523Z,99.99
2017-10-27T05:58:07.522Z,99.99
2017-10-27T05:59:07.485Z,99.99
2017-10-27T06:00:07.192Z,99.99
2017-10-27T06:01:07.145Z,99.99
2017-10-27T06:02:07.152Z,99.99
2017-10-27T06:03:07.422Z,99.99
2017-10-27T06:04:07.483Z,99.99
2017-10-27T06:05:07.572Z,99.99
2017-10-27T06:06:07.352Z,99.99
2017-10-27T06:07:07.322Z,99.99
2017-10-27T06:08:07.312Z,99.99
2017-10-27T06:09:07.285Z,99.99
2017-10-27T06:10:07.274Z,99.99
2017-10-27T06:11:07.244Z,99.99
2017-10-27T06:12:07.237Z,99.99
2017-10-27T06:13:07.214Z,99.99
2017-10-27T06:14:07.261Z,99.99
2017-10-27T06:15:07.177Z,99.99
2017-10-27T06:16:07.193Z,99.99
2017-10-27T06:17:07.141Z,99.99
2017-10-27T06:18:07.149Z,99.99
2017-10-27T06:19:07.113Z,99.99
2017-10-27T06:20:07.084Z,99.99
2017-10-27T06:21:07.103Z,99.99
2017-10-27T06:22:07.052Z,99.99
2017-10-27T06:23:07.016Z,99.99
2017-10-27T06:24:06.771Z,99.99
2017-10-27T06:25:06.979Z,99.99
2017-10-27T06:26:07.005Z,99.99
2017-10-27T06:27:06.977Z,99.99
2017-10-27T06:28:06.922Z,99.99
2017-10-27T06:29:06.562Z,99.99
2017-10-27T06:30:06.592Z,99.99
2017-10-27T06:31:06.516Z,99.99
2017-10-27T06:32:06.535Z,99.99
2017-10-27T06:33:06.853Z,99.99
2017-10-27T06:34:06.883Z,99.99
2017-10-27T06:35:06.443Z,99.99
2017-10-27T06:36:06.781Z,99.99
2017-10-27T06:37:06.724Z,99.99
2017-10-27T06:38:06.418Z,99.99
2017-10-27T06:39:06.741Z,99.99
2017-10-27T06:40:06.673Z,99.99
2017-10-27T06:41:06.655Z,99.99
2017-10-27T06:42:06.633Z,99.99
2017-10-27T06:43:06.283Z,99.99
2017-10-27T06:44:06.592Z,99.99
2017-10-27T06:45:06.682Z,99.99
2017-10-27T06:46:06.552Z,99.99
2017-10-27T06:47:06.548Z,99.99
2017-10-27T06:48:06.183Z,99.99
2017-10-27T06:49:06.168Z,99.99
2017-10-27T06:50:06.463Z,99.99
2017-10-27T06:51:06.549Z,99.99
2017-10-27T06:52:06.432Z,99.99
2017-10-27T06:53:06.412Z,99.99
2017-10-27T06:54:06.386Z,99.99
2017-10-27T06:55:06.383Z,99.99
2017-10-27T06:56:06.023Z,99.99
2017-10-27T06:57:06.002Z,99.99
2017-10-27T06:58:06.313Z,99.99
2017-10-27T06:59:06.292Z,99.99
2017-10-27T07:00:06.271Z,99.99
2017-10-27T07:01:06.253Z,99.99
2017-10-27T07:02:06.230Z,99.99
2017-10-27T07:03:06.214Z,99.99
2017-10-27T07:04:06.181Z,99.99
2017-10-27T07:05:06.162Z,99.99
2017-10-27T07:06:05.835Z,99.99
2017-10-27T07:07:06.141Z,99.99
2017-10-27T07:08:06.119Z,99.99
2017-10-27T07:09:05.780Z,99.99
2017-10-27T07:10:06.070Z,99.99
2017-10-27T07:11:05.727Z,99.99
2017-10-27T07:12:05.711Z,99.99
2017-10-27T07:13:06.026Z,99.99
2017-10-27T07:14:06.000Z,99.99
2017-10-27T07:15:05.682Z,99.99
2017-10-27T07:16:05.951Z,99.99
2017-10-27T07:17:05.622Z,99.99
2017-10-27T07:18:06.225Z,99.99
2017-10-27T07:19:05.918Z,99.99
2017-10-27T07:20:05.883Z,99.99
2017-10-27T07:21:05.542Z,99.99
2017-10-27T07:22:05.849Z,99.99
2017-10-27T07:23:05.834Z,99.99
2017-10-27T07:24:05.815Z,99.99
2017-10-27T07:25:05.484Z,99.99
2017-10-27T07:26:05.797Z,99.99
2017-10-27T07:27:05.765Z,99.99
2017-10-27T07:28:06.053Z,99.99
2017-10-27T07:29:05.734Z,99.99
2017-10-27T07:30:05.725Z,98.34
2017-10-27T07:31:05.712Z,96.85
2017-10-27T07:32:05.423Z,95.45
2017-10-27T07:33:05.352Z,94.68
2017-10-27T07:34:05.720Z,93.19
2017-10-27T07:35:05.325Z,91.8
2017-10-27T07:36:05.373Z,91.89
2017-10-27T07:37:05.623Z,91.41
2017-10-27T07:38:05.723Z,91.03
2017-10-27T07:39:05.626Z,89.82
2017-10-27T07:40:05.641Z,89.72
2017-10-27T07:41:05.573Z,89.53
2017-10-27T07:42:05.573Z,91.41
2017-10-27T07:43:05.551Z,91.7
2017-10-27T07:44:05.541Z,92.33
2017-10-27T07:45:05.213Z,91.51
2017-10-27T07:46:05.511Z,90.93
2017-10-27T07:47:05.512Z,90.35
2017-10-27T07:48:05.502Z,90.26
2017-10-27T07:49:05.485Z,91.13
2017-10-27T07:50:05.488Z,91.75
2017-10-27T07:51:05.462Z,93.29
2017-10-27T07:52:05.463Z,94.3
2017-10-27T07:53:05.466Z,96.08
2017-10-27T07:54:05.443Z,98
2017-10-27T07:55:05.439Z,99.29
2017-10-27T07:56:05.094Z,99.99
2017-10-27T07:57:05.224Z,99.99
2017-10-27T07:58:05.393Z,99.99
2017-10-27T07:59:05.383Z,99.99
2017-10-27T08:00:05.055Z,99.99
2017-10-27T08:01:05.031Z,99.99
2017-10-27T08:02:05.013Z,99.99
2017-10-27T08:03:05.312Z,99.99
2017-10-27T08:04:05.316Z,99.99
2017-10-27T08:05:05.303Z,99.99
2017-10-27T08:06:05.271Z,99.99
2017-10-27T08:07:05.259Z,99.99
2017-10-27T08:08:05.254Z,98.38
2017-10-27T08:09:05.242Z,95.6
2017-10-27T08:10:05.223Z,94.49
2017-10-27T08:11:05.214Z,93.73
2017-10-27T08:12:04.872Z,92.52
2017-10-27T08:13:04.894Z,91.94
2017-10-27T08:14:05.162Z,91.36
2017-10-27T08:15:04.843Z,91.08
2017-10-27T08:16:04.826Z,90.45
2017-10-27T08:17:05.143Z,89.58
2017-10-27T08:18:04.805Z,88.95
2017-10-27T08:19:05.123Z,88.42
2017-10-27T08:20:05.095Z,87.55
2017-10-27T08:21:05.083Z,87.36
2017-10-27T08:22:05.099Z,87.26
2017-10-27T08:23:05.133Z,86.4
2017-10-27T08:24:04.736Z,86.93
2017-10-27T08:25:05.172Z,86.69
2017-10-27T08:26:04.713Z,86.25
2017-10-27T08:27:04.803Z,86.69
2017-10-27T08:28:05.034Z,85.28
2017-10-27T08:29:05.022Z,83.59
2017-10-27T08:30:05.068Z,83.3
2017-10-27T08:31:05.076Z,82.51
2017-10-27T08:32:04.985Z,81.68
2017-10-27T08:33:04.738Z,81.35
2017-10-27T08:34:05.024Z,80.3
2017-10-27T08:35:04.649Z,80.24
2017-10-27T08:36:04.949Z,79.27
2017-10-27T08:37:04.964Z,79.37
2017-10-27T08:38:05.043Z,80.14
2017-10-27T08:39:04.948Z,81.22
2017-10-27T08:40:04.946Z,81.6
2017-10-27T08:41:04.949Z,81.51
2017-10-27T08:42:04.913Z,81.6
2017-10-27T08:43:04.920Z,80.93
2017-10-27T08:44:04.958Z,81.12
2017-10-27T08:45:04.882Z,82.43
2017-10-27T08:46:04.885Z,82.92
2017-10-27T08:47:04.877Z,82.72
2017-10-27T08:48:04.876Z,83.01
2017-10-27T08:49:04.881Z,82.72
2017-10-27T08:50:04.851Z,82.38
2017-10-27T08:51:04.531Z,82.57
2017-10-27T08:52:04.856Z,81.55
2017-10-27T08:53:04.828Z,82.38
2017-10-27T08:54:04.819Z,81.51
2017-10-27T08:55:04.827Z,80
2017-10-27T08:56:04.826Z,81.12
2017-10-27T08:57:04.482Z,81.35
2017-10-27T08:58:04.814Z,79.95
2017-10-27T08:59:04.793Z,79.56
2017-10-27T09:00:04.779Z,79.56
2017-10-27T09:01:04.796Z,79.56
2017-10-27T09:02:04.763Z,80.1
2017-10-27T09:03:04.774Z,80.43
2017-10-27T09:04:04.442Z,82.38
2017-10-27T09:05:04.814Z,83.55
2017-10-27T09:06:04.425Z,83.59
2017-10-27T09:07:04.837Z,83.2
2017-10-27T09:08:04.735Z,82.18
2017-10-27T09:09:04.724Z,80.97
2017-10-27T09:10:04.726Z,79.47
2017-10-27T09:11:04.821Z,79.08
2017-10-27T09:12:04.715Z,78.54
2017-10-27T09:13:04.706Z,78.92
2017-10-27T09:14:04.688Z,79.33
2017-10-27T09:15:04.691Z,80.83
2017-10-27T09:16:04.691Z,80.93
2017-10-27T09:17:04.673Z,81.02
2017-10-27T09:18:04.668Z,81.27
2017-10-27T09:19:04.699Z,83.07
2017-10-27T09:20:04.664Z,83.7
2017-10-27T09:21:04.662Z,84.18
2017-10-27T09:22:04.643Z,85.39
2017-10-27T09:23:04.674Z,85.74
2017-10-27T09:24:04.617Z,86.12
2017-10-27T09:25:04.635Z,86.51
2017-10-27T09:26:04.593Z,86.45
2017-10-27T09:27:04.590Z,84.18
2017-10-27T09:28:04.624Z,84.47
2017-10-27T09:29:04.572Z,83.99
2017-10-27T09:30:04.552Z,84.66
2017-10-27T09:31:04.224Z,85.2
2017-10-27T09:32:04.545Z,86.51
2017-10-27T09:33:04.535Z,86.41
2017-10-27T09:34:04.549Z,85.39
2017-10-27T09:35:04.521Z,85.78
2017-10-27T09:36:04.193Z,85.87
2017-10-27T09:37:04.507Z,85.74
2017-10-27T09:38:04.488Z,86.51
2017-10-27T09:39:04.472Z,86.31
2017-10-27T09:40:04.474Z,86.12
2017-10-27T09:41:04.454Z,85.87
2017-10-27T09:42:04.453Z,85.87
2017-10-27T09:43:04.440Z,85.3
2017-10-27T09:44:04.441Z,84.86
2017-10-27T09:45:04.422Z,84.09
2017-10-27T09:46:04.089Z,85.24
2017-10-27T09:47:04.414Z,84.28
2017-10-27T09:48:04.714Z,83.16
2017-10-27T09:49:04.388Z,83.36
2017-10-27T09:50:04.381Z,83.22
2017-10-27T09:51:04.375Z,82.87
2017-10-27T09:52:04.362Z,82.14
2017-10-27T09:53:04.354Z,82.05
2017-10-27T09:54:04.335Z,82.14
2017-10-27T09:55:04.333Z,82.24
2017-10-27T09:56:04.322Z,81.37
2017-10-27T09:57:04.303Z,80.83
2017-10-27T09:58:04.316Z,81.41
2017-10-27T09:59:04.297Z,82.05
2017-10-27T10:00:04.282Z,83.8
2017-10-27T10:01:04.277Z,86.22
2017-10-27T10:02:04.271Z,87.62
2017-10-27T10:03:04.248Z,87.76
2017-10-27T10:04:04.235Z,89.06
2017-10-27T10:05:04.239Z,89.4
2017-10-27T10:06:04.233Z,90.22
2017-10-27T10:07:04.208Z,90.7
2017-10-27T10:08:04.229Z,90.7
2017-10-27T10:09:04.197Z,91.71
2017-10-27T10:10:03.847Z,93.1
2017-10-27T10:11:04.170Z,92.86
2017-10-27T10:12:04.166Z,92.19
2017-10-27T10:13:04.136Z,93.15
2017-10-27T10:14:04.132Z,93.1
2017-10-27T10:15:04.122Z,92.57
2017-10-27T10:16:04.114Z,92.53
2017-10-27T10:17:04.085Z,92.33
2017-10-27T10:18:03.747Z,91.23
2017-10-27T10:19:04.068Z,89.93
2017-10-27T10:20:04.043Z,89.73
2017-10-27T10:21:04.057Z,88.77
2017-10-27T10:22:04.021Z,86.99
2017-10-27T10:23:04.023Z,85.53
2017-10-27T10:24:04.005Z,84.18
2017-10-27T10:25:04.005Z,85
2017-10-27T10:26:03.979Z,85.58
2017-10-27T10:27:03.964Z,85.1
2017-10-27T10:28:03.982Z,86.12
2017-10-27T10:29:03.930Z,87.27
2017-10-27T10:30:03.945Z,88.57
2017-10-27T10:31:03.594Z,90.7
2017-10-27T10:32:03.585Z,93.05
2017-10-27T10:33:03.886Z,94.78
2017-10-27T10:34:03.562Z,96.94
2017-10-27T10:35:03.862Z,98.14
2017-10-27T10:36:03.855Z,98.96
2017-10-27T10:37:03.840Z,98.19
2017-10-27T10:38:03.816Z,97.96
2017-10-27T10:39:03.809Z,97.71
2017-10-27T10:40:03.810Z,96.94
2017-10-27T10:41:03.453Z,94.98
2017-10-27T10:42:03.771Z,94.16
2017-10-27T10:43:03.433Z,93.39
2017-10-27T10:44:03.744Z,92.81
2017-10-27T10:45:03.733Z,93.1
2017-10-27T10:46:03.723Z,91.75
2017-10-27T10:47:03.704Z,91.08
2017-10-27T10:48:03.683Z,89.74
2017-10-27T10:49:03.674Z,90.36
2017-10-27T10:50:03.352Z,89.78
2017-10-27T10:51:03.646Z,89.4
2017-10-27T10:52:03.349Z,90.75
2017-10-27T10:53:03.632Z,90.65
2017-10-27T10:54:03.819Z,90.12
2017-10-27T10:55:03.583Z,88.48
2017-10-27T10:56:03.572Z,86.74
2017-10-27T10:57:03.231Z,86.26
2017-10-27T10:58:03.571Z,85.78
2017-10-27T10:59:03.537Z,85.72
2017-10-27T11:00:03.563Z,84.52
2017-10-27T11:01:03.184Z,83.4
2017-10-27T11:02:03.495Z,82.18
2017-10-27T11:03:03.171Z,81.07
2017-10-27T11:04:03.528Z,79.85
2017-10-27T11:05:03.469Z,80.1
2017-10-27T11:06:03.520Z,79.37
2017-10-27T11:07:03.450Z,78.99
2017-10-27T11:08:03.473Z,78.25
2017-10-27T11:09:03.527Z,78.79
2017-10-27T11:10:03.422Z,78.59
2017-10-27T11:11:03.402Z,78.85
2017-10-27T11:12:03.411Z,78.46
2017-10-27T11:13:03.432Z,77.63
2017-10-27T11:14:03.421Z,76.61
2017-10-27T11:15:03.037Z,77.19
2017-10-27T11:16:03.355Z,76.86
2017-10-27T11:17:03.337Z,78.56
2017-10-27T11:18:03.342Z,80.31
2017-10-27T11:19:03.321Z,79.89
2017-10-27T11:20:02.986Z,79.69
2017-10-27T11:21:03.314Z,80.12
2017-10-27T11:22:03.282Z,79.25
2017-10-27T11:23:02.944Z,79.25
2017-10-27T11:24:03.264Z,79.79
2017-10-27T11:25:03.264Z,78.67
2017-10-27T11:26:03.241Z,78.23
2017-10-27T11:27:03.233Z,77.5
2017-10-27T11:28:03.238Z,75.95
2017-10-27T11:29:03.205Z,76.92
2017-10-27T11:30:03.206Z,77.61
2017-10-27T11:31:03.191Z,78.29
2017-10-27T11:32:03.185Z,78.67
2017-10-27T11:33:03.157Z,80.04
2017-10-27T11:34:02.833Z,81.01
2017-10-27T11:35:03.165Z,81.29
2017-10-27T11:36:03.134Z,81.93
2017-10-27T11:37:03.111Z,82.85
2017-10-27T11:38:02.789Z,83.92
2017-10-27T11:39:03.105Z,83.86
2017-10-27T11:40:03.074Z,83.09
2017-10-27T11:41:02.763Z,82.32
2017-10-27T11:42:03.064Z,82.32
2017-10-27T11:43:02.974Z,82.61
2017-10-27T11:44:03.034Z,81.5
2017-10-27T11:45:03.027Z,82.65
2017-10-27T11:46:02.688Z,83.58
2017-10-27T11:47:02.668Z,83.63
2017-10-27T11:48:02.989Z,83.86
2017-10-27T11:49:02.994Z,81.88
2017-10-27T11:50:02.957Z,80.87
2017-10-27T11:51:02.946Z,80.14
2017-10-27T11:52:02.930Z,79.11
2017-10-27T11:53:02.913Z,79.6
2017-10-27T11:54:02.906Z,79.21
2017-10-27T11:55:02.572Z,79.94
2017-10-27T11:56:02.893Z,79.75
2017-10-27T11:57:02.550Z,79.17
2017-10-27T11:58:02.857Z,78.69
2017-10-27T11:59:02.523Z,78.06
2017-10-27T12:00:02.843Z,77.38
2017-10-27T12:01:02.825Z,77.33
2017-10-27T12:02:02.805Z,76.55
2017-10-27T12:03:02.796Z,76.93
2017-10-27T12:04:02.789Z,77.09
2017-10-27T12:05:02.787Z,77.48
2017-10-27T12:06:02.779Z,77.48
2017-10-27T12:07:02.770Z,77.48
2017-10-27T12:08:02.732Z,78.06
2017-10-27T12:09:02.726Z,78.34
2017-10-27T12:10:02.734Z,78.44
2017-10-27T12:11:02.387Z,77.81
2017-10-27T12:12:02.704Z,77.51
2017-10-27T12:13:02.365Z,77.23
2017-10-27T12:14:02.674Z,78.54
2017-10-27T12:15:02.671Z,79.41
2017-10-27T12:16:02.661Z,79.21
2017-10-27T12:17:02.306Z,79.17
2017-10-27T12:18:02.624Z,81.45
2017-10-27T12:19:02.614Z,81.79
2017-10-27T12:20:02.610Z,83.04
2017-10-27T12:21:02.585Z,84.01
2017-10-27T12:22:02.587Z,84.01
2017-10-27T12:23:02.591Z,83.44
2017-10-27T12:24:02.554Z,83.19
2017-10-27T12:25:02.547Z,83
2017-10-27T12:26:02.216Z,82.81
2017-10-27T12:27:02.520Z,83.09
2017-10-27T12:28:02.557Z,83.73
2017-10-27T12:29:02.510Z,84.21
2017-10-27T12:30:02.489Z,84.01
2017-10-27T12:31:02.486Z,83.73
2017-10-27T12:32:02.446Z,83.86
2017-10-27T12:33:02.785Z,83.77
2017-10-27T12:34:02.427Z,84.25
2017-10-27T12:35:02.425Z,84.16
2017-10-27T12:36:02.392Z,84.4
2017-10-27T12:37:02.394Z,84.92
2017-10-27T12:38:02.365Z,84.11
2017-10-27T12:39:02.029Z,83.83
2017-10-27T12:40:02.336Z,84.69
2017-10-27T12:41:02.326Z,85.17
2017-10-27T12:42:02.325Z,86.28
2017-10-27T12:43:02.312Z,87.1
2017-10-27T12:44:02.287Z,88.16
2017-10-27T12:45:02.288Z,89.07
2017-10-27T12:46:02.246Z,88.88
2017-10-27T12:47:02.225Z,88.16
2017-10-27T12:48:02.228Z,87.19
2017-10-27T12:49:01.880Z,87.77
2017-10-27T12:50:02.202Z,88.83
2017-10-27T12:51:02.185Z,88.79
2017-10-27T12:52:02.165Z,89.41
2017-10-27T12:53:02.142Z,90.47
2017-10-27T12:54:01.922Z,91.14